sensor_id;sensor_type;location;lat;lon;timestamp;pressure;altitude;pressure_sealevel;temperature;humidity
46846;BME280;33947;46.804;134.252;2023-09-30T00:02:24;100073.44;;;11.82;88.67
46846;BME280;33947;46.804;134.252;2023-09-30T00:06:20;100194.78;;;12.79;88.33
46846;BME280;33947;46.804;134.252;2023-09-30T00:09:59;100019.66;;;11.74;86.96
46846;BME280;33947;46.804;134.252;2023-09-30T00:13:46;100023.56;;;12.10;87.01
46846;BME280;33947;46.804;134.252;2023-09-30T00:17:54;100012.81;;;12.13;85.66
46846;BME280;33947;46.804;134.252;2023-09-30T00:21:33;99988.84;;;12.34;84.38
46846;BME280;33947;46.804;134.252;2023-09-30T00:25:08;100159.47;;;13.56;84.66
46846;BME280;33947;46.804;134.252;2023-09-30T00:28:45;100084.16;;;13.50;83.28
46846;BME280;33947;46.804;134.252;2023-09-30T00:31:50;100151.19;;;13.82;82.70
46846;BME280;33947;46.804;134.252;2023-09-30T00:34:57;100155.34;;;13.49;84.66
46846;BME280;33947;46.804;134.252;2023-09-30T00:38:05;100145.38;;;13.53;83.97
46846;BME280;33947;46.804;134.252;2023-09-30T00:41:12;100132.84;;;13.74;83.69
46846;BME280;33947;46.804;134.252;2023-09-30T00:44:16;100112.91;;;14.00;82.82
46846;BME280;33947;46.804;134.252;2023-09-30T00:47:27;100129.97;;;13.98;82.86
46846;BME280;33947;46.804;134.252;2023-09-30T00:50:37;100105.00;;;14.16;82.48
46846;BME280;33947;46.804;134.252;2023-09-30T00:53:42;100133.66;;;14.86;80.34
46846;BME280;33947;46.804;134.252;2023-09-30T00:56:47;100143.41;;;14.87;79.53
46846;BME280;33947;46.804;134.252;2023-09-30T00:59:53;100144.19;;;14.72;80.32
46846;BME280;33947;46.804;134.252;2023-09-30T01:03:07;100141.53;;;14.53;80.68
46846;BME280;33947;46.804;134.252;2023-09-30T01:06:20;100148.81;;;14.68;80.43
46846;BME280;33947;46.804;134.252;2023-09-30T01:09:25;100134.13;;;14.77;79.73
46846;BME280;33947;46.804;134.252;2023-09-30T01:12:29;100097.88;;;14.71;78.82
46846;BME280;33947;46.804;134.252;2023-09-30T01:15:46;100079.84;;;14.75;78.38
46846;BME280;33947;46.804;134.252;2023-09-30T01:19:05;100101.66;;;15.02;78.50
46846;BME280;33947;46.804;134.252;2023-09-30T01:22:18;100125.50;;;15.41;77.37
46846;BME280;33947;46.804;134.252;2023-09-30T01:25:26;100098.56;;;15.44;76.06
46846;BME280;33947;46.804;134.252;2023-09-30T01:28:33;100122.97;;;15.38;76.62
46846;BME280;33947;46.804;134.252;2023-09-30T01:31:42;100126.59;;;15.53;75.84
46846;BME280;33947;46.804;134.252;2023-09-30T01:34:57;100126.34;;;15.41;75.55
46846;BME280;33947;46.804;134.252;2023-09-30T01:38:07;100113.34;;;15.17;76.45
46846;BME280;33947;46.804;134.252;2023-09-30T01:41:26;100100.69;;;15.03;77.15
46846;BME280;33947;46.804;134.252;2023-09-30T01:44:31;100071.66;;;14.96;76.69
46846;BME280;33947;46.804;134.252;2023-09-30T01:47:38;100072.00;;;15.23;76.41
46846;BME280;33947;46.804;134.252;2023-09-30T01:50:57;100072.91;;;15.06;75.21
46846;BME280;33947;46.804;134.252;2023-09-30T01:54:05;100036.03;;;15.29;76.20
46846;BME280;33947;46.804;134.252;2023-09-30T01:57:15;100068.78;;;15.82;74.61
46846;BME280;33947;46.804;134.252;2023-09-30T02:00:22;100067.84;;;15.99;72.14
46846;BME280;33947;46.804;134.252;2023-09-30T02:03:36;100043.22;;;15.93;71.02
46846;BME280;33947;46.804;134.252;2023-09-30T02:07:08;100029.84;;;15.93;70.29
46846;BME280;33947;46.804;134.252;2023-09-30T02:10:18;100016.34;;;15.78;69.85
46846;BME280;33947;46.804;134.252;2023-09-30T02:13:23;99998.56;;;15.77;69.69
46846;BME280;33947;46.804;134.252;2023-09-30T02:16:28;100030.16;;;15.86;70.10
46846;BME280;33947;46.804;134.252;2023-09-30T02:19:32;100028.88;;;15.94;69.84
46846;BME280;33947;46.804;134.252;2023-09-30T02:22:39;100008.94;;;15.99;69.93
46846;BME280;33947;46.804;134.252;2023-09-30T02:25:45;99973.59;;;15.93;69.68
46846;BME280;33947;46.804;134.252;2023-09-30T02:28:53;99992.75;;;16.31;68.54
46846;BME280;33947;46.804;134.252;2023-09-30T02:31:58;99987.28;;;16.18;69.07
46846;BME280;33947;46.804;134.252;2023-09-30T02:35:02;99979.59;;;16.12;68.73
46846;BME280;33947;46.804;134.252;2023-09-30T02:38:08;99995.25;;;16.04;69.13
46846;BME280;33947;46.804;134.252;2023-09-30T02:41:15;100017.31;;;15.93;69.07
46846;BME280;33947;46.804;134.252;2023-09-30T02:44:20;100009.69;;;15.85;68.01
46846;BME280;33947;46.804;134.252;2023-09-30T02:47:24;100006.50;;;15.95;66.40
46846;BME280;33947;46.804;134.252;2023-09-30T02:50:32;99948.31;;;15.50;66.95
46846;BME280;33947;46.804;134.252;2023-09-30T02:53:36;99956.94;;;15.55;68.04
46846;BME280;33947;46.804;134.252;2023-09-30T02:56:46;99914.06;;;15.41;67.57
46846;BME280;33947;46.804;134.252;2023-09-30T02:59:53;99948.38;;;15.65;67.93
46846;BME280;33947;46.804;134.252;2023-09-30T03:02:59;99896.31;;;15.54;67.80
46846;BME280;33947;46.804;134.252;2023-09-30T03:06:12;99916.91;;;15.54;68.11
46846;BME280;33947;46.804;134.252;2023-09-30T03:09:20;99929.00;;;15.75;68.87
46846;BME280;33947;46.804;134.252;2023-09-30T03:12:25;99921.94;;;15.90;68.61
46846;BME280;33947;46.804;134.252;2023-09-30T03:16:24;99817.72;;;15.41;67.96
46846;BME280;33947;46.804;134.252;2023-09-30T03:20:47;99796.91;;;15.60;67.92
46846;BME280;33947;46.804;134.252;2023-09-30T03:28:49;99907.25;;;17.14;66.07
46846;BME280;33947;46.804;134.252;2023-09-30T03:32:27;99879.47;;;17.15;66.32
46846;BME280;33947;46.804;134.252;2023-09-30T03:36:10;99876.81;;;16.86;64.61
46846;BME280;33947;46.804;134.252;2023-09-30T03:39:21;99886.69;;;16.56;66.46
46846;BME280;33947;46.804;134.252;2023-09-30T03:42:31;99903.63;;;16.42;66.35
46846;BME280;33947;46.804;134.252;2023-09-30T03:45:39;99871.34;;;16.15;66.95
46846;BME280;33947;46.804;134.252;2023-09-30T03:48:45;99881.41;;;16.11;66.91
46846;BME280;33947;46.804;134.252;2023-09-30T03:51:49;99899.09;;;15.99;67.62
46846;BME280;33947;46.804;134.252;2023-09-30T03:54:56;99905.47;;;15.97;67.86
46846;BME280;33947;46.804;134.252;2023-09-30T03:58:06;99926.25;;;15.77;68.79
46846;BME280;33947;46.804;134.252;2023-09-30T04:01:17;99912.72;;;15.64;69.78
46846;BME280;33947;46.804;134.252;2023-09-30T04:04:32;99912.78;;;15.62;71.31
46846;BME280;33947;46.804;134.252;2023-09-30T04:07:41;99899.06;;;15.53;72.28
46846;BME280;33947;46.804;134.252;2023-09-30T04:10:48;99893.22;;;15.46;73.39
46846;BME280;33947;46.804;134.252;2023-09-30T04:13:52;99856.03;;;15.25;73.78
46846;BME280;33947;46.804;134.252;2023-09-30T04:17:00;99894.09;;;15.46;74.27
46846;BME280;33947;46.804;134.252;2023-09-30T04:20:18;99874.38;;;15.47;75.01
46846;BME280;33947;46.804;134.252;2023-09-30T04:23:31;99874.53;;;15.60;75.38
46846;BME280;33947;46.804;134.252;2023-09-30T04:26:38;99850.22;;;15.80;75.15
46846;BME280;33947;46.804;134.252;2023-09-30T04:29:45;99783.13;;;15.52;74.90
46846;BME280;33947;46.804;134.252;2023-09-30T04:32:50;99841.88;;;16.15;74.73
46846;BME280;33947;46.804;134.252;2023-09-30T04:35:57;99821.31;;;16.15;74.71
46846;BME280;33947;46.804;134.252;2023-09-30T04:39:02;99805.91;;;16.33;74.49
46846;BME280;33947;46.804;134.252;2023-09-30T04:42:07;99831.50;;;16.67;74.39
46846;BME280;33947;46.804;134.252;2023-09-30T04:45:15;99817.50;;;16.48;74.15
46846;BME280;33947;46.804;134.252;2023-09-30T04:48:36;99840.47;;;16.53;73.96
46846;BME280;33947;46.804;134.252;2023-09-30T04:51:47;99837.78;;;16.53;73.83
46846;BME280;33947;46.804;134.252;2023-09-30T04:55:21;99808.69;;;16.17;74.51
46846;BME280;33947;46.804;134.252;2023-09-30T04:58:26;99817.88;;;16.13;75.09
46846;BME280;33947;46.804;134.252;2023-09-30T05:01:44;99835.69;;;16.14;75.88
46846;BME280;33947;46.804;134.252;2023-09-30T05:05:17;99814.38;;;15.82;76.18
46846;BME280;33947;46.804;134.252;2023-09-30T05:24:32;99834.66;;;15.09;80.70
46846;BME280;33947;46.804;134.252;2023-09-30T05:27:38;99827.59;;;14.92;81.51
46846;BME280;33947;46.804;134.252;2023-09-30T05:30:46;99802.41;;;14.64;85.10
46846;BME280;33947;46.804;134.252;2023-09-30T05:33:50;99816.09;;;14.58;86.76
46846;BME280;33947;46.804;134.252;2023-09-30T05:36:55;99806.09;;;14.45;89.20
46846;BME280;33947;46.804;134.252;2023-09-30T05:39:59;99811.38;;;14.63;87.17
46846;BME280;33947;46.804;134.252;2023-09-30T05:43:04;99806.97;;;14.62;92.58
46846;BME280;33947;46.804;134.252;2023-09-30T05:46:10;99808.97;;;14.74;88.42
46846;BME280;33947;46.804;134.252;2023-09-30T05:49:15;99808.28;;;14.87;87.24
46846;BME280;33947;46.804;134.252;2023-09-30T05:52:20;99764.88;;;14.50;90.87
46846;BME280;33947;46.804;134.252;2023-09-30T05:55:24;99778.66;;;14.58;91.57
46846;BME280;33947;46.804;134.252;2023-09-30T05:58:29;99759.22;;;14.72;91.74
46846;BME280;33947;46.804;134.252;2023-09-30T06:01:34;99711.78;;;14.43;91.35
46846;BME280;33947;46.804;134.252;2023-09-30T06:04:39;99712.97;;;14.54;91.48
46846;BME280;33947;46.804;134.252;2023-09-30T06:07:45;99741.88;;;14.63;91.93
46846;BME280;33947;46.804;134.252;2023-09-30T06:10:50;99731.44;;;14.58;92.56
46846;BME280;33947;46.804;134.252;2023-09-30T06:13:55;99700.16;;;14.44;91.90
46846;BME280;33947;46.804;134.252;2023-09-30T06:17:02;99737.94;;;14.70;91.88
46846;BME280;33947;46.804;134.252;2023-09-30T06:20:07;99742.66;;;14.81;90.60
46846;BME280;33947;46.804;134.252;2023-09-30T06:23:14;99721.53;;;14.76;89.89
46846;BME280;33947;46.804;134.252;2023-09-30T06:26:19;99718.78;;;14.62;90.40
46846;BME280;33947;46.804;134.252;2023-09-30T06:29:24;99745.41;;;14.80;90.34
46846;BME280;33947;46.804;134.252;2023-09-30T06:32:30;99725.41;;;14.71;89.93
46846;BME280;33947;46.804;134.252;2023-09-30T06:35:35;99726.09;;;14.58;92.26
46846;BME280;33947;46.804;134.252;2023-09-30T06:38:46;99719.91;;;14.42;92.81
46846;BME280;33947;46.804;134.252;2023-09-30T06:41:52;99737.56;;;14.44;92.67
46846;BME280;33947;46.804;134.252;2023-09-30T06:44:57;99714.03;;;14.35;92.48
46846;BME280;33947;46.804;134.252;2023-09-30T06:48:01;99750.91;;;14.44;92.43
46846;BME280;33947;46.804;134.252;2023-09-30T06:51:06;99735.91;;;14.26;94.96
46846;BME280;33947;46.804;134.252;2023-09-30T06:54:14;99743.47;;;14.17;96.22
46846;BME280;33947;46.804;134.252;2023-09-30T06:57:18;99745.69;;;14.09;96.33
46846;BME280;33947;46.804;134.252;2023-09-30T07:00:23;99699.69;;;13.88;95.57
46846;BME280;33947;46.804;134.252;2023-09-30T07:03:29;99743.22;;;14.22;94.64
46846;BME280;33947;46.804;134.252;2023-09-30T07:06:36;99711.75;;;14.11;93.41
46846;BME280;33947;46.804;134.252;2023-09-30T07:09:43;99722.44;;;14.11;92.77
46846;BME280;33947;46.804;134.252;2023-09-30T07:12:48;99775.28;;;14.22;92.90
46846;BME280;33947;46.804;134.252;2023-09-30T07:15:52;99785.25;;;14.18;93.28
46846;BME280;33947;46.804;134.252;2023-09-30T07:19:00;99798.31;;;14.25;93.28
46846;BME280;33947;46.804;134.252;2023-09-30T07:22:04;99816.84;;;14.28;92.51
46846;BME280;33947;46.804;134.252;2023-09-30T07:25:11;99815.47;;;14.03;95.33
46846;BME280;33947;46.804;134.252;2023-09-30T07:28:21;99791.78;;;13.97;96.70
46846;BME280;33947;46.804;134.252;2023-09-30T07:31:26;99784.00;;;13.92;97.41
46846;BME280;33947;46.804;134.252;2023-09-30T07:34:30;99789.88;;;13.99;97.67
46846;BME280;33947;46.804;134.252;2023-09-30T07:37:34;99794.88;;;14.23;94.04
46846;BME280;33947;46.804;134.252;2023-09-30T07:40:39;99798.66;;;14.01;97.04
46846;BME280;33947;46.804;134.252;2023-09-30T07:43:43;99805.63;;;13.87;99.98
46846;BME280;33947;46.804;134.252;2023-09-30T07:46:47;99806.56;;;13.69;99.98
46846;BME280;33947;46.804;134.252;2023-09-30T07:49:51;99804.50;;;13.92;97.98
46846;BME280;33947;46.804;134.252;2023-09-30T07:52:56;99775.72;;;13.45;100.00
46846;BME280;33947;46.804;134.252;2023-09-30T07:56:02;99768.59;;;13.46;100.00
46846;BME280;33947;46.804;134.252;2023-09-30T07:59:13;99792.13;;;13.73;100.00
46846;BME280;33947;46.804;134.252;2023-09-30T08:02:21;99812.84;;;13.85;100.00
46846;BME280;33947;46.804;134.252;2023-09-30T08:05:28;99811.47;;;13.94;100.00
46846;BME280;33947;46.804;134.252;2023-09-30T08:08:33;99776.41;;;13.84;98.46
46846;BME280;33947;46.804;134.252;2023-09-30T08:11:38;99797.28;;;13.94;98.55
46846;BME280;33947;46.804;134.252;2023-09-30T08:14:42;99792.22;;;14.05;98.11
46846;BME280;33947;46.804;134.252;2023-09-30T08:17:50;99784.09;;;13.91;98.21
46846;BME280;33947;46.804;134.252;2023-09-30T08:20:57;99785.50;;;13.98;97.99
46846;BME280;33947;46.804;134.252;2023-09-30T08:24:02;99793.00;;;14.07;96.86
46846;BME280;33947;46.804;134.252;2023-09-30T08:27:07;99791.66;;;13.98;96.82
46846;BME280;33947;46.804;134.252;2023-09-30T08:30:11;99791.22;;;13.90;97.62
46846;BME280;33947;46.804;134.252;2023-09-30T08:33:16;99795.56;;;13.93;97.83
46846;BME280;33947;46.804;134.252;2023-09-30T08:36:21;99782.03;;;13.96;97.29
46846;BME280;33947;46.804;134.252;2023-09-30T08:39:27;99782.19;;;13.93;95.98
46846;BME280;33947;46.804;134.252;2023-09-30T08:42:33;99786.16;;;13.85;97.08
46846;BME280;33947;46.804;134.252;2023-09-30T08:45:38;99775.81;;;13.62;98.15
46846;BME280;33947;46.804;134.252;2023-09-30T08:48:44;99762.00;;;13.53;98.14
46846;BME280;33947;46.804;134.252;2023-09-30T08:51:50;99766.41;;;13.54;97.97
46846;BME280;33947;46.804;134.252;2023-09-30T08:54:55;99761.28;;;13.50;97.92
46846;BME280;33947;46.804;134.252;2023-09-30T08:57:59;99769.06;;;13.54;97.14
46846;BME280;33947;46.804;134.252;2023-09-30T09:01:04;99786.19;;;13.50;96.78
46846;BME280;33947;46.804;134.252;2023-09-30T09:04:11;99789.56;;;13.35;97.10
46846;BME280;33947;46.804;134.252;2023-09-30T09:07:16;99782.59;;;13.14;99.08
46846;BME280;33947;46.804;134.252;2023-09-30T09:10:20;99780.72;;;13.34;98.04
46846;BME280;33947;46.804;134.252;2023-09-30T09:13:25;99780.47;;;13.21;96.88
46846;BME280;33947;46.804;134.252;2023-09-30T09:16:29;99780.06;;;13.11;97.19
46846;BME280;33947;46.804;134.252;2023-09-30T09:19:34;99780.59;;;13.00;97.83
46846;BME280;33947;46.804;134.252;2023-09-30T09:22:43;99742.53;;;12.79;97.97
46846;BME280;33947;46.804;134.252;2023-09-30T09:25:49;99767.41;;;12.97;96.63
46846;BME280;33947;46.804;134.252;2023-09-30T09:29:04;99783.69;;;13.10;95.84
46846;BME280;33947;46.804;134.252;2023-09-30T09:32:12;99788.28;;;13.07;96.00
46846;BME280;33947;46.804;134.252;2023-09-30T09:35:25;99631.91;;;11.97;95.96
46846;BME280;33947;46.804;134.252;2023-09-30T09:38:48;99771.03;;;12.96;95.97
46846;BME280;33947;46.804;134.252;2023-09-30T09:41:59;99785.13;;;12.98;96.38
46846;BME280;33947;46.804;134.252;2023-09-30T09:45:18;99775.72;;;12.91;96.83
46846;BME280;33947;46.804;134.252;2023-09-30T09:48:22;99742.00;;;12.72;96.82
46846;BME280;33947;46.804;134.252;2023-09-30T09:52:01;99713.56;;;12.54;97.08
46846;BME280;33947;46.804;134.252;2023-09-30T09:59:54;99689.47;;;12.19;97.78
46846;BME280;33947;46.804;134.252;2023-09-30T10:11:59;99707.91;;;12.42;96.86
46846;BME280;33947;46.804;134.252;2023-09-30T10:19:10;99739.81;;;12.81;97.00
46846;BME280;33947;46.804;134.252;2023-09-30T10:22:22;99707.00;;;12.61;96.08
46846;BME280;33947;46.804;134.252;2023-09-30T10:25:35;99787.81;;;12.98;96.57
46846;BME280;33947;46.804;134.252;2023-09-30T10:28:53;99642.38;;;12.01;97.64
46846;BME280;33947;46.804;134.252;2023-09-30T10:32:04;99738.91;;;12.63;96.93
46846;BME280;33947;46.804;134.252;2023-09-30T10:38:38;99700.69;;;12.44;96.83
46846;BME280;33947;46.804;134.252;2023-09-30T10:41:50;99826.94;;;12.98;97.68
46846;BME280;33947;46.804;134.252;2023-09-30T10:44:58;99697.13;;;12.26;98.00
46846;BME280;33947;46.804;134.252;2023-09-30T10:51:41;99725.75;;;12.40;98.27
46846;BME280;33947;46.804;134.252;2023-09-30T10:55:02;99825.78;;;13.03;98.04
46846;BME280;33947;46.804;134.252;2023-09-30T10:58:10;99769.34;;;12.76;98.08
46846;BME280;33947;46.804;134.252;2023-09-30T11:01:46;99795.97;;;12.95;97.86
46846;BME280;33947;46.804;134.252;2023-09-30T11:09:40;99802.50;;;13.07;98.74
46846;BME280;33947;46.804;134.252;2023-09-30T11:13:12;99684.44;;;12.32;97.16
46846;BME280;33947;46.804;134.252;2023-09-30T11:17:05;99832.94;;;13.21;97.51
46846;BME280;33947;46.804;134.252;2023-09-30T12:09:07;99852.63;;;11.81;100.00
46846;BME280;33947;46.804;134.252;2023-09-30T12:18:22;99839.34;;;11.38;100.00
46846;BME280;33947;46.804;134.252;2023-09-30T12:21:56;99670.59;;;10.40;100.00
46846;BME280;33947;46.804;134.252;2023-09-30T12:25:36;99748.50;;;10.85;100.00
46846;BME280;33947;46.804;134.252;2023-09-30T12:29:07;99711.19;;;10.44;100.00
46846;BME280;33947;46.804;134.252;2023-09-30T12:32:18;99721.22;;;10.57;100.00
46846;BME280;33947;46.804;134.252;2023-09-30T12:35:30;99710.72;;;10.54;99.56
46846;BME280;33947;46.804;134.252;2023-09-30T12:38:58;99682.06;;;10.40;99.61
46846;BME280;33947;46.804;134.252;2023-09-30T12:42:14;99694.38;;;10.43;98.59
46846;BME280;33947;46.804;134.252;2023-09-30T12:45:33;99716.59;;;10.40;99.47
46846;BME280;33947;46.804;134.252;2023-09-30T12:48:46;99827.88;;;11.15;99.85
46846;BME280;33947;46.804;134.252;2023-09-30T12:52:20;99708.41;;;10.47;99.29
46846;BME280;33947;46.804;134.252;2023-09-30T12:55:40;99764.91;;;10.73;98.71
46846;BME280;33947;46.804;134.252;2023-09-30T12:58:54;99801.38;;;10.91;98.45
46846;BME280;33947;46.804;134.252;2023-09-30T13:02:31;99728.94;;;10.41;98.47
46846;BME280;33947;46.804;134.252;2023-09-30T13:06:10;99841.09;;;10.94;97.97
46846;BME280;33947;46.804;134.252;2023-09-30T13:09:30;99784.47;;;10.48;99.16
46846;BME280;33947;46.804;134.252;2023-09-30T13:12:43;99767.75;;;10.46;99.47
46846;BME280;33947;46.804;134.252;2023-09-30T13:16:03;99778.81;;;10.57;98.47
46846;BME280;33947;46.804;134.252;2023-09-30T13:19:53;99764.22;;;10.45;99.26
46846;BME280;33947;46.804;134.252;2023-09-30T13:23:19;99785.22;;;10.74;97.73
46846;BME280;33947;46.804;134.252;2023-09-30T13:27:13;99861.28;;;11.22;95.79
46846;BME280;33947;46.804;134.252;2023-09-30T13:30:50;99783.31;;;10.77;95.33
46846;BME280;33947;46.804;134.252;2023-09-30T13:34:15;99802.97;;;10.95;94.68
46846;BME280;33947;46.804;134.252;2023-09-30T13:37:22;99784.38;;;10.73;95.36
46846;BME280;33947;46.804;134.252;2023-09-30T13:40:41;99811.06;;;10.92;95.78
46846;BME280;33947;46.804;134.252;2023-09-30T13:44:07;99821.03;;;11.09;95.62
46846;BME280;33947;46.804;134.252;2023-09-30T13:47:24;99781.09;;;10.89;94.18
46846;BME280;33947;46.804;134.252;2023-09-30T13:55:32;99852.38;;;11.23;95.55
46846;BME280;33947;46.804;134.252;2023-09-30T13:59:06;99855.06;;;11.22;96.35
46846;BME280;33947;46.804;134.252;2023-09-30T14:02:14;99828.06;;;11.10;96.11
46846;BME280;33947;46.804;134.252;2023-09-30T14:05:18;99845.38;;;11.21;97.02
46846;BME280;33947;46.804;134.252;2023-09-30T14:08:24;99822.88;;;11.07;97.32
46846;BME280;33947;46.804;134.252;2023-09-30T14:11:29;99828.31;;;11.04;97.50
46846;BME280;33947;46.804;134.252;2023-09-30T14:14:34;99848.28;;;11.14;97.67
46846;BME280;33947;46.804;134.252;2023-09-30T14:17:39;99818.84;;;10.97;98.30
46846;BME280;33947;46.804;134.252;2023-09-30T14:20:46;99843.38;;;11.26;98.27
46846;BME280;33947;46.804;134.252;2023-09-30T14:23:50;99818.25;;;11.12;97.19
46846;BME280;33947;46.804;134.252;2023-09-30T14:26:54;99809.22;;;10.94;97.02
46846;BME280;33947;46.804;134.252;2023-09-30T14:30:04;99860.47;;;11.20;97.79
46846;BME280;33947;46.804;134.252;2023-09-30T14:33:10;99855.75;;;11.27;97.69
46846;BME280;33947;46.804;134.252;2023-09-30T14:36:18;99860.13;;;11.28;98.00
46846;BME280;33947;46.804;134.252;2023-09-30T14:39:22;99863.31;;;11.15;98.91
46846;BME280;33947;46.804;134.252;2023-09-30T14:42:27;99871.09;;;11.20;99.35
46846;BME280;33947;46.804;134.252;2023-09-30T14:45:31;99872.19;;;11.14;99.46
46846;BME280;33947;46.804;134.252;2023-09-30T14:48:37;99862.06;;;11.02;100.00
46846;BME280;33947;46.804;134.252;2023-09-30T14:51:41;99875.03;;;11.10;99.98
46846;BME280;33947;46.804;134.252;2023-09-30T14:54:46;99872.06;;;11.18;99.06
46846;BME280;33947;46.804;134.252;2023-09-30T14:57:50;99853.63;;;10.91;100.00
46846;BME280;33947;46.804;134.252;2023-09-30T15:00:55;99869.91;;;10.83;100.00
46846;BME280;33947;46.804;134.252;2023-09-30T15:04:04;99885.72;;;10.86;100.00
46846;BME280;33947;46.804;134.252;2023-09-30T15:07:12;99868.75;;;10.66;100.00
46846;BME280;33947;46.804;134.252;2023-09-30T15:10:17;99892.25;;;10.77;100.00
46846;BME280;33947;46.804;134.252;2023-09-30T15:13:22;99882.84;;;10.68;100.00
46846;BME280;33947;46.804;134.252;2023-09-30T15:16:26;99887.13;;;10.49;100.00
46846;BME280;33947;46.804;134.252;2023-09-30T15:19:34;99887.03;;;10.50;100.00
46846;BME280;33947;46.804;134.252;2023-09-30T15:22:39;99859.31;;;10.34;100.00
46846;BME280;33947;46.804;134.252;2023-09-30T15:25:44;99902.97;;;10.50;100.00
46846;BME280;33947;46.804;134.252;2023-09-30T15:28:49;99896.44;;;10.61;100.00
46846;BME280;33947;46.804;134.252;2023-09-30T15:31:53;99908.88;;;10.59;100.00
46846;BME280;33947;46.804;134.252;2023-09-30T15:34:59;99900.41;;;10.49;100.00
46846;BME280;33947;46.804;134.252;2023-09-30T15:38:05;99898.44;;;10.54;100.00
46846;BME280;33947;46.804;134.252;2023-09-30T15:41:12;99908.94;;;10.57;100.00
46846;BME280;33947;46.804;134.252;2023-09-30T15:44:16;99907.09;;;10.34;100.00
46846;BME280;33947;46.804;134.252;2023-09-30T15:47:21;99908.75;;;10.36;100.00
46846;BME280;33947;46.804;134.252;2023-09-30T15:50:26;99920.06;;;10.43;100.00
46846;BME280;33947;46.804;134.252;2023-09-30T15:53:30;99901.84;;;10.32;100.00
46846;BME280;33947;46.804;134.252;2023-09-30T15:56:37;99889.44;;;10.33;100.00
46846;BME280;33947;46.804;134.252;2023-09-30T15:59:57;99907.00;;;10.37;100.00
46846;BME280;33947;46.804;134.252;2023-09-30T16:03:06;99897.34;;;10.34;100.00
46846;BME280;33947;46.804;134.252;2023-09-30T16:06:11;99906.16;;;10.60;100.00
46846;BME280;33947;46.804;134.252;2023-09-30T16:09:15;99887.41;;;10.65;100.00
46846;BME280;33947;46.804;134.252;2023-09-30T16:12:20;99902.63;;;10.60;100.00
46846;BME280;33947;46.804;134.252;2023-09-30T16:15:25;99925.09;;;10.51;100.00
46846;BME280;33947;46.804;134.252;2023-09-30T16:18:30;99866.03;;;10.19;100.00
46846;BME280;33947;46.804;134.252;2023-09-30T16:21:34;99914.72;;;10.45;100.00
46846;BME280;33947;46.804;134.252;2023-09-30T16:24:41;99915.06;;;10.59;100.00
46846;BME280;33947;46.804;134.252;2023-09-30T16:27:45;99917.88;;;10.54;100.00
46846;BME280;33947;46.804;134.252;2023-09-30T16:30:52;99890.84;;;10.43;100.00
46846;BME280;33947;46.804;134.252;2023-09-30T16:33:56;99909.22;;;10.49;100.00
46846;BME280;33947;46.804;134.252;2023-09-30T16:37:02;99917.53;;;10.40;100.00
46846;BME280;33947;46.804;134.252;2023-09-30T16:40:06;99917.84;;;10.56;100.00
46846;BME280;33947;46.804;134.252;2023-09-30T16:43:11;99914.47;;;10.51;100.00
46846;BME280;33947;46.804;134.252;2023-09-30T16:46:17;99905.13;;;10.64;100.00
46846;BME280;33947;46.804;134.252;2023-09-30T16:49:21;99911.13;;;10.69;100.00
46846;BME280;33947;46.804;134.252;2023-09-30T16:52:25;99905.00;;;10.44;100.00
46846;BME280;33947;46.804;134.252;2023-09-30T16:55:30;99917.88;;;10.54;100.00
46846;BME280;33947;46.804;134.252;2023-09-30T16:58:34;99917.03;;;10.54;100.00
46846;BME280;33947;46.804;134.252;2023-09-30T17:01:38;99915.53;;;10.47;100.00
46846;BME280;33947;46.804;134.252;2023-09-30T17:04:44;99906.41;;;10.28;100.00
46846;BME280;33947;46.804;134.252;2023-09-30T17:07:48;99900.69;;;10.39;100.00
46846;BME280;33947;46.804;134.252;2023-09-30T17:10:52;99917.38;;;10.68;100.00
46846;BME280;33947;46.804;134.252;2023-09-30T17:13:59;99917.69;;;10.61;100.00
46846;BME280;33947;46.804;134.252;2023-09-30T17:17:03;99914.25;;;10.57;100.00
46846;BME280;33947;46.804;134.252;2023-09-30T17:20:08;99893.06;;;10.30;100.00
46846;BME280;33947;46.804;134.252;2023-09-30T17:23:14;99924.56;;;10.41;100.00
46846;BME280;33947;46.804;134.252;2023-09-30T17:26:18;99868.81;;;10.16;100.00
46846;BME280;33947;46.804;134.252;2023-09-30T17:29:23;99906.00;;;10.39;100.00
46846;BME280;33947;46.804;134.252;2023-09-30T17:32:28;99919.28;;;10.65;100.00
46846;BME280;33947;46.804;134.252;2023-09-30T17:35:37;99916.31;;;10.73;100.00
46846;BME280;33947;46.804;134.252;2023-09-30T17:38:42;99923.03;;;10.83;100.00
46846;BME280;33947;46.804;134.252;2023-09-30T17:41:47;99921.34;;;10.80;99.95
46846;BME280;33947;46.804;134.252;2023-09-30T17:44:51;99919.50;;;10.82;99.29
46846;BME280;33947;46.804;134.252;2023-09-30T17:47:55;99894.91;;;10.77;99.09
46846;BME280;33947;46.804;134.252;2023-09-30T17:51:00;99913.94;;;10.89;98.18
46846;BME280;33947;46.804;134.252;2023-09-30T17:54:04;99914.06;;;10.85;99.17
46846;BME280;33947;46.804;134.252;2023-09-30T17:57:09;99919.63;;;10.79;99.19
46846;BME280;33947;46.804;134.252;2023-09-30T18:00:14;99914.06;;;10.85;98.95
46846;BME280;33947;46.804;134.252;2023-09-30T18:03:18;99909.69;;;10.84;99.06
46846;BME280;33947;46.804;134.252;2023-09-30T18:06:23;99912.91;;;10.93;99.20
46846;BME280;33947;46.804;134.252;2023-09-30T18:09:28;99909.31;;;10.94;98.86